SLSA4: ILLINOIS RIVER AT HIGHWAY 16 BRIDGE NR SILOAM SPRINGS 4SE

Data processed at Fri Feb 23 2018 21:13


All information presented herein is the property of the government of the United States of America and may be revised or deleted at any time without prior notice.
Dissemination of this information without the expressed written consent of the Public Affairs Office, Tulsa District U.S. Army Corps of Engineers is strictly prohibited.
These data are gathered electronically and, as presented, have not undergone any form of quality control. These data are not guaranteed to be valid or correct.
Go to home page.
Go to station list.

Upstream stations:

Downstream station:
Previous Day
Next Day
Current Day
    
SHEF ID:       SLSA4     Illinois River at Hwy. 16 near S
STATION TYPE:  

               PRECIP     STAGE  RIV-FLOW  BAT-LOAD
                   in        ft       cfs      volt
              Ccp-Rev   Ccp-Rev   Ccp-Rev   Ccp-Rev
(US/Central)
02/23 00:00      0.00      8.77      1396     12.65
02/23 01:00      0.00      8.75      1384     12.60
02/23 02:00      0.00      8.73      1372     12.60
02/23 03:00      0.00      8.70      1354     12.60
02/23 04:00      0.00      8.70      1354     12.60
02/23 05:00      0.00      8.73      1372     12.54
02/23 06:00      0.00      8.83      1433     12.54
02/23 07:00      0.00      9.00      1540     12.54
02/23 08:00      0.00      9.13      1626     12.54
02/23 09:00      0.00      9.27      1721     12.60
02/23 10:00      0.00      9.27      1721     12.89
02/23 11:00      0.00      9.23      1694     12.89
02/23 12:00      0.00      9.17      1653     12.89
02/23 13:00      0.08      9.10      1606     12.83
02/23 14:00      0.21      9.07      1586     12.65
02/23 15:00      0.14      9.01      1547     12.60
02/23 16:00      0.07      8.97      1521     12.65
02/23 17:00      0.00      8.92      1489     12.60
02/23 18:00      0.02      8.90      1477     12.54
02/23 19:00      0.23      8.91      1483     12.54
02/23 20:00      0.37      8.95      1508     12.48
02/23 21:00      ----      ----      ----      ----
02/23 22:00      ----      ----      ----      ----
02/23 23:00      ----      ----      ----      ----